CheckWX is a tool to help pilots better visualize weather data.  It is not intended as a substitute for an official pre-flight weather briefing.

18:18:45 UTC

2J9 METAR
Quincy Municipal Airport
Quincy, Florida, USA
Current

24 mins ago

K2J9 211755Z AUTO 24004KT 10SM FEW041 32/22 A3008 RMK AO2
Observed
Jul-21 @ 17:55 UTC
Wind
  • 240° at 4 KTS
Visibility
10 SM
Flight Rules
VFR
Cloud Levels
  • Few at 4,100' AGL
Temperature
32°C / 90°F
Dewpoint
22°C / 72°F
Heat Index
36°C / 97°F
Humidity
55%
Altimeter
30.08" Hg
Pressure
1018.62 hPa
Previous

44 mins ago

K2J9 211735Z AUTO 18003KT 10SM SCT038 SCT044 31/22 A3009 RMK AO2
Observed
Jul-21 @ 17:35 UTC
Wind
  • 180° at 3 KTS
Visibility
10 SM
Flight Rules
VFR
Cloud Levels
  • Scattered at 3,800' AGL
  • Scattered at 4,400' AGL
Temperature
31°C / 88°F
Dewpoint
22°C / 72°F
Heat Index
35°C / 95°F
Humidity
59%
Altimeter
30.09" Hg
Pressure
1018.92 hPa
Previous

1 hour ago

K2J9 211715Z AUTO 00000KT 10SM SCT036 SCT042 31/22 A3009 RMK AO2
Observed
Jul-21 @ 17:15 UTC
Visibility
10 SM
Flight Rules
VFR
Cloud Levels
  • Scattered at 3,600' AGL
  • Scattered at 4,200' AGL
Temperature
31°C / 88°F
Dewpoint
22°C / 72°F
Heat Index
35°C / 95°F
Humidity
59%
Altimeter
30.09" Hg
Pressure
1018.92 hPa